createdAt,value
2018-07-06T00:00:31.254Z,90.19
2018-07-06T00:01:31.914Z,90.38
2018-07-06T00:02:31.725Z,89.90
2018-07-06T00:03:31.067Z,90.19
2018-07-06T00:04:31.619Z,90.19
2018-07-06T00:05:30.960Z,90.09
2018-07-06T00:06:31.786Z,90.09
2018-07-06T00:07:31.244Z,90.09
2018-07-06T00:08:53.042Z,90.09
2018-07-06T00:09:53.329Z,89.80
2018-07-06T00:11:14.184Z,90.19
2018-07-06T00:12:14.584Z,89.80
2018-07-06T00:13:14.854Z,90.09
2018-07-06T00:14:14.282Z,89.80
2018-07-06T00:15:14.811Z,90.00
2018-07-06T00:16:15.269Z,90.00
2018-07-06T00:17:14.585Z,90.19
2018-07-06T00:18:14.938Z,90.09
2018-07-06T00:19:14.421Z,90.67
2018-07-06T00:20:14.843Z,90.57
2018-07-06T00:21:14.475Z,90.57
2018-07-06T00:22:15.037Z,90.95
2018-07-06T00:23:14.621Z,90.67
2018-07-06T00:24:14.951Z,91.05
2018-07-06T00:25:14.431Z,90.76
2018-07-06T00:26:14.940Z,91.05
2018-07-06T00:27:14.712Z,90.76
2018-07-06T00:28:35.419Z,90.86
2018-07-06T00:30:18.281Z,91.14
2018-07-06T00:31:18.643Z,91.14
2018-07-06T00:32:19.173Z,91.14
2018-07-06T00:33:18.536Z,91.24
2018-07-06T00:34:40.274Z,90.95
2018-07-06T00:36:02.049Z,90.95
2018-07-06T00:37:02.459Z,90.95
2018-07-06T00:38:02.099Z,90.76
2018-07-06T00:39:23.542Z,90.76
2018-07-06T00:40:23.901Z,90.57
2018-07-06T00:41:24.274Z,90.47
2018-07-06T00:42:23.801Z,90.38
2018-07-06T00:43:24.467Z,90.38
2018-07-06T00:44:24.106Z,90.67
2018-07-06T00:45:23.550Z,90.76
2018-07-06T00:46:23.888Z,90.57
2018-07-06T00:47:24.450Z,90.47
2018-07-06T00:48:23.773Z,90.76
2018-07-06T00:49:24.310Z,90.19
2018-07-06T00:50:23.785Z,90.09
2018-07-06T00:51:24.013Z,90.19
2018-07-06T00:52:24.379Z,90.57
2018-07-06T00:53:23.739Z,89.90
2018-07-06T00:54:24.085Z,90.28
2018-07-06T00:55:23.565Z,90.09
2018-07-06T00:56:23.927Z,89.80
2018-07-06T00:57:24.308Z,90.28
2018-07-06T00:58:24.312Z,90.67
2018-07-06T00:59:23.973Z,90.57
2018-07-06T01:00:26.007Z,90.19
2018-07-06T01:01:24.433Z,90.57
2018-07-06T01:02:23.666Z,90.86
2018-07-06T01:03:24.233Z,90.67
2018-07-06T01:04:23.657Z,90.47
2018-07-06T01:05:24.044Z,90.09
2018-07-06T01:06:23.506Z,89.71
2018-07-06T01:07:23.845Z,89.32
2018-07-06T01:08:24.341Z,89.23
2018-07-06T01:09:23.559Z,89.13
2018-07-06T01:10:45.090Z,89.04
2018-07-06T01:11:45.749Z,89.23
2018-07-06T01:12:45.076Z,89.42
2018-07-06T01:13:45.748Z,88.94
2018-07-06T01:14:45.122Z,88.84
2018-07-06T01:15:45.456Z,88.84
2018-07-06T01:16:45.988Z,88.75
2018-07-06T01:17:45.523Z,88.84
2018-07-06T01:18:45.941Z,88.65
2018-07-06T01:19:45.714Z,88.46
2018-07-06T01:20:45.217Z,88.46
2018-07-06T01:22:06.701Z,88.27
2018-07-06T01:23:07.003Z,87.79
2018-07-06T01:24:07.390Z,87.55
2018-07-06T01:25:06.854Z,87.27
2018-07-06T01:26:07.363Z,86.88
2018-07-06T01:27:07.652Z,86.69
2018-07-06T01:28:07.147Z,86.50
2018-07-06T01:29:07.825Z,87.08
2018-07-06T01:30:07.395Z,86.79
2018-07-06T01:31:06.945Z,87.02
2018-07-06T01:32:08.377Z,87.12
2018-07-06T01:33:06.700Z,87.02
2018-07-06T01:34:06.959Z,86.88
2018-07-06T01:35:07.499Z,87.21
2018-07-06T01:36:06.709Z,87.08
2018-07-06T01:37:07.247Z,86.79
2018-07-06T01:38:06.883Z,87.37
2018-07-06T01:39:07.338Z,87.41
2018-07-06T01:40:06.984Z,87.79
2018-07-06T01:41:07.253Z,87.50
2018-07-06T01:42:07.888Z,87.41
2018-07-06T01:43:07.469Z,87.50
2018-07-06T01:44:07.070Z,87.60
2018-07-06T01:45:07.650Z,87.17
2018-07-06T01:46:07.020Z,87.31
2018-07-06T01:47:07.706Z,87.21
2018-07-06T01:48:07.263Z,87.31
2018-07-06T01:49:07.822Z,87.50
2018-07-06T01:50:07.368Z,87.41
2018-07-06T01:51:07.220Z,87.70
2018-07-06T01:52:07.541Z,87.50
2018-07-06T01:53:07.305Z,87.41
2018-07-06T01:54:07.714Z,87.17
2018-07-06T01:55:07.235Z,86.88
2018-07-06T01:56:07.591Z,86.79
2018-07-06T01:57:07.032Z,86.69
2018-07-06T01:58:07.507Z,86.83
2018-07-06T01:59:07.075Z,87.31
2018-07-06T02:00:07.657Z,87.70
2018-07-06T02:01:06.930Z,87.41
2018-07-06T02:02:07.497Z,87.41
2018-07-06T02:03:07.114Z,87.21
2018-07-06T02:04:07.542Z,87.70
2018-07-06T02:05:28.450Z,87.31
2018-07-06T02:06:29.174Z,87.12
2018-07-06T02:07:50.167Z,87.21
2018-07-06T02:08:50.683Z,87.02
2018-07-06T02:09:50.021Z,87.21
2018-07-06T02:10:50.515Z,87.50
2018-07-06T02:11:50.977Z,87.50
2018-07-06T02:12:50.507Z,87.02
2018-07-06T02:13:50.128Z,87.41
2018-07-06T02:14:50.552Z,87.21
2018-07-06T02:15:51.075Z,86.74
2018-07-06T02:16:50.519Z,86.83
2018-07-06T02:17:50.050Z,86.35
2018-07-06T02:18:50.325Z,86.64
2018-07-06T02:19:50.755Z,86.64
2018-07-06T02:20:50.241Z,86.83
2018-07-06T02:21:50.722Z,86.74
2018-07-06T02:22:50.249Z,86.74
2018-07-06T02:23:50.697Z,86.74
2018-07-06T02:24:50.523Z,86.45
2018-07-06T02:25:51.089Z,86.25
2018-07-06T02:27:11.548Z,86.16
2018-07-06T02:28:11.991Z,85.88
2018-07-06T02:29:13.053Z,85.88
2018-07-06T02:30:12.515Z,86.16
2018-07-06T02:31:12.012Z,86.64
2018-07-06T02:32:12.505Z,86.54
2018-07-06T02:33:12.228Z,86.45
2018-07-06T02:34:11.781Z,86.35
2018-07-06T02:35:12.082Z,86.93
2018-07-06T02:36:33.536Z,86.64
2018-07-06T02:37:34.200Z,86.45
2018-07-06T02:38:33.691Z,86.74
2018-07-06T02:39:55.023Z,86.83
2018-07-06T02:40:55.274Z,86.74
2018-07-06T02:41:54.801Z,86.64
2018-07-06T02:42:55.300Z,86.83
2018-07-06T02:44:02.448Z,87.12
2018-07-06T02:44:54.858Z,86.64
2018-07-06T02:45:55.380Z,86.45
2018-07-06T02:46:55.771Z,86.35
2018-07-06T02:47:55.285Z,86.45
2018-07-06T02:48:55.920Z,86.45
2018-07-06T02:49:55.319Z,86.35
2018-07-06T02:50:54.826Z,86.54
2018-07-06T02:51:55.288Z,86.74
2018-07-06T02:53:28.054Z,86.54
2018-07-06T02:54:27.534Z,86.35
2018-07-06T02:55:28.097Z,86.16
2018-07-06T02:56:27.679Z,86.07
2018-07-06T02:57:28.057Z,86.45
2018-07-06T02:58:27.533Z,86.45
2018-07-06T02:59:28.052Z,86.07
2018-07-06T03:00:27.628Z,86.83
2018-07-06T03:01:48.537Z,86.64
2018-07-06T03:02:49.162Z,87.31
2018-07-06T03:03:49.716Z,87.12
2018-07-06T03:04:49.444Z,87.02
2018-07-06T03:05:48.940Z,87.21
2018-07-06T03:06:49.335Z,87.12
2018-07-06T03:07:48.801Z,87.31
2018-07-06T03:08:49.711Z,86.64
2018-07-06T03:09:49.734Z,87.21
2018-07-06T03:10:49.504Z,86.93
2018-07-06T03:11:49.866Z,86.45
2018-07-06T03:12:49.417Z,86.93
2018-07-06T03:13:48.882Z,86.93
2018-07-06T03:14:49.696Z,86.16
2018-07-06T03:15:49.377Z,86.93
2018-07-06T03:16:48.947Z,86.93
2018-07-06T03:18:32.093Z,87.02
2018-07-06T03:19:53.703Z,86.54
2018-07-06T03:20:54.276Z,86.54
2018-07-06T03:21:54.885Z,86.45
2018-07-06T03:22:54.201Z,86.25
2018-07-06T03:23:54.906Z,86.25
2018-07-06T03:24:54.504Z,86.16
2018-07-06T03:25:54.156Z,86.35
2018-07-06T03:26:54.717Z,86.54
2018-07-06T03:28:15.768Z,86.35
2018-07-06T03:29:16.310Z,86.16
2018-07-06T03:30:36.950Z,86.35
2018-07-06T03:31:37.347Z,86.83
2018-07-06T03:32:59.393Z,86.74
2018-07-06T03:33:59.870Z,86.74
2018-07-06T03:35:20.509Z,86.74
2018-07-06T03:36:21.011Z,87.12
2018-07-06T03:37:21.387Z,87.41
2018-07-06T03:38:20.674Z,88.08
2018-07-06T03:39:21.202Z,87.79
2018-07-06T03:40:20.769Z,87.79
2018-07-06T03:41:21.412Z,87.50
2018-07-06T03:42:20.914Z,87.79
2018-07-06T03:43:20.434Z,87.88
2018-07-06T03:44:20.793Z,88.17
2018-07-06T03:45:21.568Z,88.08
2018-07-06T03:46:42.385Z,88.08
2018-07-06T03:47:43.010Z,87.98
2018-07-06T03:48:42.709Z,87.98
2018-07-06T03:49:42.943Z,88.17
2018-07-06T03:50:42.479Z,87.70
2018-07-06T03:51:43.096Z,87.88
2018-07-06T03:52:42.831Z,88.46
2018-07-06T03:53:42.342Z,88.46
2018-07-06T03:54:43.013Z,88.56
2018-07-06T03:55:42.734Z,88.56
2018-07-06T03:56:42.611Z,88.56
2018-07-06T03:57:43.411Z,88.65
2018-07-06T03:58:43.246Z,89.32
2018-07-06T03:59:42.910Z,89.32
2018-07-06T04:00:42.359Z,90.38
2018-07-06T04:01:42.778Z,90.76
2018-07-06T04:02:42.282Z,90.76
2018-07-06T04:03:42.574Z,90.67
2018-07-06T04:04:42.108Z,90.67
2018-07-06T04:05:42.944Z,90.57
2018-07-06T04:06:42.366Z,90.67
2018-07-06T04:07:42.808Z,90.76
2018-07-06T04:08:42.226Z,90.38
2018-07-06T04:09:43.002Z,90.38
2018-07-06T04:10:42.468Z,90.47
2018-07-06T04:11:43.067Z,90.09
2018-07-06T04:12:42.744Z,90.00
2018-07-06T04:13:42.537Z,90.19
2018-07-06T04:14:42.878Z,90.19
2018-07-06T04:16:03.691Z,90.09
2018-07-06T04:17:04.060Z,90.19
2018-07-06T04:18:25.898Z,90.00
2018-07-06T04:19:26.250Z,89.80
2018-07-06T04:20:26.594Z,89.80
2018-07-06T04:21:26.194Z,89.71
2018-07-06T04:22:26.682Z,89.42
2018-07-06T04:23:26.241Z,89.61
2018-07-06T04:24:25.986Z,89.61
2018-07-06T04:25:26.511Z,89.71
2018-07-06T04:26:26.141Z,89.42
2018-07-06T04:27:26.659Z,89.51
2018-07-06T04:28:26.426Z,89.23
2018-07-06T04:29:26.082Z,88.94
2018-07-06T04:30:26.758Z,88.84
2018-07-06T04:31:26.279Z,88.46
2018-07-06T04:32:26.753Z,87.98
2018-07-06T04:33:26.427Z,87.79
2018-07-06T04:34:26.259Z,87.41
2018-07-06T04:35:26.743Z,87.50
2018-07-06T04:36:26.200Z,87.21
2018-07-06T04:37:26.744Z,87.41
2018-07-06T04:38:26.278Z,86.93
2018-07-06T04:39:25.840Z,87.02
2018-07-06T04:40:47.800Z,86.35
2018-07-06T04:41:48.664Z,85.49
2018-07-06T04:42:48.190Z,85.45
2018-07-06T04:43:47.773Z,85.16
2018-07-06T04:44:48.107Z,84.78
2018-07-06T04:45:48.540Z,84.20
2018-07-06T04:46:48.655Z,84.01
2018-07-06T04:47:48.409Z,83.72
2018-07-06T04:49:09.508Z,83.44
2018-07-06T04:50:31.669Z,83.76
2018-07-06T04:51:32.528Z,83.34
2018-07-06T04:52:31.981Z,82.76
2018-07-06T04:53:31.516Z,82.67
2018-07-06T04:54:32.139Z,82.67
2018-07-06T04:55:31.859Z,82.67
2018-07-06T04:56:32.314Z,82.38
2018-07-06T04:57:31.934Z,82.86
2018-07-06T04:58:32.417Z,82.76
2018-07-06T04:59:31.784Z,82.76
2018-07-06T05:00:32.336Z,82.76
2018-07-06T05:01:31.895Z,82.71
2018-07-06T05:02:31.496Z,82.38
2018-07-06T05:03:32.284Z,82.00
2018-07-06T05:04:31.830Z,81.90
2018-07-06T05:05:31.476Z,82.19
2018-07-06T05:06:32.027Z,82.32
2018-07-06T05:07:31.752Z,83.09
2018-07-06T05:08:32.560Z,83.09
2018-07-06T05:09:32.308Z,82.81
2018-07-06T05:10:32.133Z,83.29
2018-07-06T05:11:31.503Z,83.00
2018-07-06T05:12:31.987Z,82.42
2018-07-06T05:13:31.636Z,82.90
2018-07-06T05:14:32.331Z,82.52
2018-07-06T05:15:32.006Z,82.52
2018-07-06T05:16:31.736Z,82.90
2018-07-06T05:17:32.442Z,82.71
2018-07-06T05:18:31.912Z,83.29
2018-07-06T05:19:31.340Z,83.19
2018-07-06T05:21:14.566Z,83.38
2018-07-06T05:22:15.281Z,83.29
2018-07-06T05:23:14.827Z,83.09
2018-07-06T05:24:37.008Z,83.09
2018-07-06T05:25:37.816Z,83.19
2018-07-06T05:26:37.604Z,83.19
2018-07-06T05:27:37.141Z,82.71
2018-07-06T05:28:37.871Z,82.90
2018-07-06T05:29:37.674Z,83.19
2018-07-06T05:30:37.354Z,83.00
2018-07-06T05:31:37.109Z,82.81
2018-07-06T05:32:37.862Z,82.81
2018-07-06T05:33:58.919Z,82.90
2018-07-06T05:34:59.678Z,82.90
2018-07-06T05:35:59.416Z,83.09
2018-07-06T05:36:59.090Z,83.09
2018-07-06T05:38:21.277Z,83.38
2018-07-06T05:39:22.133Z,83.52
2018-07-06T05:40:21.579Z,83.42
2018-07-06T05:41:21.260Z,84.00
2018-07-06T05:42:22.322Z,84.48
2018-07-06T05:43:45.733Z,84.09
2018-07-06T05:44:47.375Z,84.19
2018-07-06T05:45:46.100Z,84.00
2018-07-06T05:46:45.971Z,84.38
2018-07-06T05:47:45.830Z,84.00
2018-07-06T05:48:46.613Z,83.81
2018-07-06T05:49:46.639Z,84.48
2018-07-06T05:50:46.423Z,84.58
2018-07-06T05:52:07.262Z,84.86
2018-07-06T05:53:08.127Z,84.77
2018-07-06T05:54:29.463Z,84.58
2018-07-06T05:55:30.059Z,85.44
2018-07-06T05:56:29.761Z,85.34
2018-07-06T05:57:29.430Z,85.82
2018-07-06T05:58:30.139Z,86.78
2018-07-06T05:59:29.991Z,86.68
2018-07-06T06:00:29.630Z,86.21
2018-07-06T06:01:29.647Z,86.40
2018-07-06T06:02:30.381Z,87.01
2018-07-06T06:03:30.001Z,87.30
2018-07-06T06:04:29.717Z,87.30
2018-07-06T06:05:29.519Z,88.07
2018-07-06T06:06:29.881Z,87.98
2018-07-06T06:07:29.437Z,88.17
2018-07-06T06:08:29.911Z,88.35
2018-07-06T06:09:29.384Z,88.35
2018-07-06T06:10:30.080Z,89.12
2018-07-06T06:11:50.910Z,89.32
2018-07-06T06:12:51.937Z,89.99
2018-07-06T06:13:51.546Z,89.61
2018-07-06T06:14:51.301Z,90.32
2018-07-06T06:16:33.701Z,91.09
2018-07-06T06:18:20.614Z,90.90
2018-07-06T06:19:21.110Z,92.05
2018-07-06T06:20:42.257Z,92.72
2018-07-06T06:21:42.998Z,92.14
2018-07-06T06:22:43.110Z,92.43
2018-07-06T06:23:42.755Z,92.72
2018-07-06T06:25:25.800Z,92.24
2018-07-06T06:26:26.521Z,91.86
2018-07-06T06:27:26.601Z,92.63
2018-07-06T06:28:26.321Z,93.01
2018-07-06T06:29:25.950Z,93.01
2018-07-06T06:30:25.567Z,93.10
2018-07-06T06:31:26.125Z,93.20
2018-07-06T06:32:25.649Z,93.54
2018-07-06T06:33:26.664Z,93.25
2018-07-06T06:34:25.458Z,93.82
2018-07-06T06:35:26.250Z,93.92
2018-07-06T06:36:25.924Z,93.73
2018-07-06T06:37:25.717Z,93.73
2018-07-06T06:38:47.039Z,93.63
2018-07-06T06:39:47.833Z,93.63
2018-07-06T06:40:47.390Z,93.92
2018-07-06T06:41:47.057Z,93.92
2018-07-06T06:42:47.781Z,93.54
2018-07-06T06:43:47.206Z,93.54
2018-07-06T06:45:09.175Z,93.30
2018-07-06T06:46:31.568Z,92.53
2018-07-06T06:47:32.252Z,92.24
2018-07-06T06:49:15.574Z,91.14
2018-07-06T06:50:15.147Z,90.56
2018-07-06T06:51:36.808Z,89.61
2018-07-06T06:52:37.670Z,89.99
2018-07-06T06:53:58.583Z,90.28
2018-07-06T06:54:59.275Z,89.79
2018-07-06T06:55:58.907Z,89.32
2018-07-06T06:56:58.642Z,89.89
2018-07-06T06:57:59.328Z,90.08
2018-07-06T06:58:58.815Z,90.37
2018-07-06T06:59:58.617Z,92.10
2018-07-06T07:00:59.338Z,91.72
2018-07-06T07:01:59.053Z,92.05
2018-07-06T07:02:58.938Z,92.82
2018-07-06T07:05:02.739Z,94.64
2018-07-06T07:06:04.017Z,95.12
2018-07-06T07:07:02.879Z,95.84
2018-07-06T07:08:03.441Z,96.42
2018-07-06T07:09:03.184Z,96.75
2018-07-06T07:10:02.912Z,98.58
2018-07-06T07:11:03.403Z,98.00
2018-07-06T07:12:03.093Z,98.77
2018-07-06T07:13:03.622Z,99.99
2018-07-06T07:14:03.082Z,99.73
2018-07-06T07:15:02.971Z,99.83
2018-07-06T07:16:25.458Z,99.73
2018-07-06T07:17:26.221Z,99.78
2018-07-06T07:19:09.188Z,99.59
2018-07-06T07:20:09.960Z,99.59
2018-07-06T07:21:09.897Z,99.11
2018-07-06T07:22:31.182Z,98.82
2018-07-06T07:23:31.995Z,99.01
2018-07-06T07:24:31.494Z,98.72
2018-07-06T07:25:30.950Z,98.72
2018-07-06T07:27:14.490Z,99.40
2018-07-06T07:28:36.450Z,99.68
2018-07-06T07:29:37.160Z,99.30
2018-07-06T07:30:36.931Z,99.11
2018-07-06T07:31:36.538Z,99.01
2018-07-06T07:32:37.556Z,98.91
2018-07-06T07:33:37.462Z,98.91
2018-07-06T07:34:36.947Z,98.96
2018-07-06T07:35:36.355Z,99.35
2018-07-06T07:36:36.856Z,99.63
2018-07-06T07:37:37.343Z,99.83
2018-07-06T07:38:37.100Z,99.92
2018-07-06T07:39:36.717Z,99.73
2018-07-06T07:40:58.558Z,99.73
2018-07-06T07:41:58.963Z,99.92
2018-07-06T07:42:59.489Z,99.92
2018-07-06T07:44:20.385Z,99.73
2018-07-06T07:45:21.004Z,99.54
2018-07-06T07:46:20.669Z,99.83
2018-07-06T07:47:21.400Z,99.92
2018-07-06T07:48:42.683Z,99.83
2018-07-06T07:49:43.288Z,99.92
2018-07-06T07:50:43.289Z,99.92
2018-07-06T07:52:04.878Z,99.99
2018-07-06T07:53:05.387Z,99.68
2018-07-06T07:54:04.892Z,99.40
2018-07-06T07:55:05.561Z,99.40
2018-07-06T07:56:05.338Z,99.11
2018-07-06T07:57:05.144Z,99.16
2018-07-06T07:58:05.136Z,98.68
2018-07-06T07:59:04.611Z,98.44
2018-07-06T08:00:05.316Z,97.86
2018-07-06T08:01:05.064Z,97.42
2018-07-06T08:02:06.159Z,97.24
2018-07-06T08:03:04.673Z,96.75
2018-07-06T08:04:05.402Z,95.64
2018-07-06T08:05:04.990Z,94.87
2018-07-06T08:06:26.328Z,94.78
2018-07-06T08:07:27.337Z,94.20
2018-07-06T08:08:26.963Z,93.43
2018-07-06T08:09:47.920Z,92.61
2018-07-06T08:10:48.347Z,91.89
2018-07-06T08:11:47.999Z,92.56
2018-07-06T08:12:48.568Z,93.24
2018-07-06T08:13:48.222Z,93.87
2018-07-06T08:14:49.032Z,94.82
2018-07-06T08:15:48.826Z,95.45
2018-07-06T08:17:09.734Z,95.89
2018-07-06T08:18:31.540Z,94.68
2018-07-06T08:19:32.051Z,93.81
2018-07-06T08:20:31.741Z,92.66
2018-07-06T08:21:31.678Z,92.80
2018-07-06T08:22:32.596Z,91.26
2018-07-06T08:23:53.961Z,89.76
2018-07-06T08:25:16.498Z,89.81
2018-07-06T08:26:17.425Z,88.02
2018-07-06T08:27:17.742Z,84.58
2018-07-06T08:28:38.813Z,81.49
2018-07-06T08:29:38.679Z,80.53
2018-07-06T08:30:38.612Z,78.15
2018-07-06T08:31:38.448Z,77.17
2018-07-06T08:32:38.293Z,74.30
2018-07-06T08:33:38.938Z,72.98
2018-07-06T08:34:38.583Z,70.50
2018-07-06T08:35:38.210Z,71.18
2018-07-06T08:37:00.515Z,70.50
2018-07-06T08:38:00.167Z,70.40
2018-07-06T08:39:00.951Z,69.53
2018-07-06T08:40:00.803Z,69.75
2018-07-06T08:41:00.632Z,70.82
2018-07-06T08:42:21.276Z,70.82
2018-07-06T08:43:22.062Z,71.78
2018-07-06T08:44:43.084Z,72.66
2018-07-06T08:45:43.939Z,72.81
2018-07-06T08:46:43.671Z,73.10
2018-07-06T08:47:43.441Z,74.27
2018-07-06T08:49:48.675Z,74.32
2018-07-06T08:50:49.316Z,74.81
2018-07-06T08:51:49.079Z,74.85
2018-07-06T08:52:49.777Z,72.95
2018-07-06T08:53:49.337Z,72.30
2018-07-06T08:54:49.056Z,70.60
2018-07-06T08:55:48.836Z,70.18
2018-07-06T08:56:49.419Z,71.69
2018-07-06T08:57:49.084Z,71.84
2018-07-06T08:58:48.576Z,72.39
2018-07-06T08:59:49.345Z,74.00
2018-07-06T09:00:49.307Z,74.04
2018-07-06T09:01:49.096Z,73.68
2018-07-06T09:02:49.987Z,72.95
2018-07-06T09:03:49.739Z,70.66
2018-07-06T09:04:49.798Z,69.43
2018-07-06T09:05:49.449Z,68.44
2018-07-06T09:06:49.690Z,66.14
2018-07-06T09:07:49.213Z,64.50
2018-07-06T09:08:49.236Z,64.23
2018-07-06T09:10:12.405Z,63.01
2018-07-06T09:11:35.396Z,62.91
2018-07-06T09:12:35.920Z,62.84
2018-07-06T09:13:57.902Z,60.83
2018-07-06T09:14:57.423Z,62.04
2018-07-06T09:15:57.872Z,62.46
2018-07-06T09:17:00.050Z,63.29
2018-07-06T09:17:58.044Z,62.29
2018-07-06T09:18:58.040Z,60.83
2018-07-06T09:19:57.992Z,60.96
2018-07-06T09:20:57.866Z,60.51
2018-07-06T09:21:57.716Z,60.41
2018-07-06T09:22:57.603Z,60.18
2018-07-06T09:23:58.007Z,59.33
2018-07-06T09:24:57.692Z,58.53
2018-07-06T09:25:57.708Z,58.89
2018-07-06T09:26:58.376Z,58.31
2018-07-06T09:27:58.044Z,59.12
2018-07-06T09:28:57.936Z,59.61
2018-07-06T09:29:58.980Z,58.67
2018-07-06T09:30:57.985Z,58.47
2018-07-06T09:31:57.349Z,58.79
2018-07-06T09:32:58.067Z,58.23
2018-07-06T09:33:57.908Z,57.95
2018-07-06T09:34:57.876Z,57.59
2018-07-06T09:36:19.081Z,57.29
2018-07-06T09:37:20.077Z,55.66
2018-07-06T09:38:20.801Z,54.91
2018-07-06T09:39:19.538Z,54.46
2018-07-06T09:40:20.649Z,54.66
2018-07-06T09:41:40.820Z,54.86
2018-07-06T09:42:41.466Z,54.82
2018-07-06T09:43:40.827Z,54.36
2018-07-06T09:44:41.490Z,54.28
2018-07-06T09:46:02.149Z,52.83
2018-07-06T09:47:02.639Z,52.40
2018-07-06T09:48:02.479Z,52.70
2018-07-06T09:49:03.672Z,52.83
2018-07-06T09:50:02.530Z,53.05
2018-07-06T09:51:02.243Z,51.51
2018-07-06T09:52:02.987Z,51.14
2018-07-06T09:53:02.758Z,50.29
2018-07-06T09:54:02.426Z,49.56
2018-07-06T09:55:02.453Z,50.46
2018-07-06T09:56:02.123Z,52.53
2018-07-06T09:57:02.810Z,53.40
2018-07-06T09:58:45.143Z,53.36
2018-07-06T09:59:45.886Z,51.17
2018-07-06T10:00:45.477Z,51.58
2018-07-06T10:02:07.449Z,52.26
2018-07-06T10:03:08.755Z,51.70
2018-07-06T10:04:07.412Z,51.82
2018-07-06T10:05:08.146Z,50.75
2018-07-06T10:06:07.600Z,50.75
2018-07-06T10:07:08.426Z,51.56
2018-07-06T10:08:08.252Z,50.78
2018-07-06T10:09:08.026Z,50.51
2018-07-06T10:10:08.831Z,50.02
2018-07-06T10:11:07.845Z,49.93
2018-07-06T10:12:07.559Z,49.24
2018-07-06T10:13:08.040Z,49.51
2018-07-06T10:14:09.170Z,50.92
2018-07-06T10:15:08.157Z,51.12
2018-07-06T10:16:08.984Z,50.63
2018-07-06T10:17:08.046Z,50.29
2018-07-06T10:19:18.323Z,49.02
2018-07-06T10:20:19.313Z,48.17
2018-07-06T10:21:43.439Z,47.90
2018-07-06T10:22:41.596Z,46.85
2018-07-06T10:24:01.879Z,46.19
2018-07-06T10:24:41.236Z,46.01
2018-07-06T10:25:41.212Z,44.84
2018-07-06T10:26:45.794Z,44.82
2018-07-06T10:27:42.896Z,46.09
2018-07-06T10:28:41.913Z,45.51
2018-07-06T10:29:40.981Z,45.62
2018-07-06T10:31:02.393Z,43.96
2018-07-06T10:32:02.870Z,43.38
2018-07-06T10:33:02.512Z,43.10
2018-07-06T10:34:02.438Z,43.13
2018-07-06T10:35:02.339Z,41.76
2018-07-06T10:36:26.128Z,42.79
2018-07-06T10:37:26.766Z,44.06
2018-07-06T10:38:26.856Z,43.67
2018-07-06T10:39:26.694Z,44.38
2018-07-06T10:40:26.530Z,44.28
2018-07-06T10:41:27.380Z,43.69
2018-07-06T10:42:27.202Z,44.67
2018-07-06T10:43:26.892Z,43.96
2018-07-06T10:44:48.166Z,43.32
2018-07-06T10:45:48.789Z,43.77
2018-07-06T10:46:48.761Z,44.14
2018-07-06T10:47:48.527Z,45.07
2018-07-06T10:48:49.098Z,45.81
2018-07-06T10:49:49.026Z,46.56
2018-07-06T10:50:48.719Z,46.76
2018-07-06T10:51:48.691Z,47.56
2018-07-06T10:52:49.175Z,47.46
2018-07-06T10:53:49.105Z,47.71
2018-07-06T10:54:48.876Z,47.95
2018-07-06T10:55:48.421Z,47.48
2018-07-06T10:56:48.928Z,46.43
2018-07-06T10:57:49.792Z,46.50
2018-07-06T10:58:48.536Z,45.31
2018-07-06T10:59:48.024Z,46.66
2018-07-06T11:00:48.589Z,45.97
2018-07-06T11:02:09.844Z,45.02
2018-07-06T11:03:32.880Z,43.89
2018-07-06T11:04:33.593Z,43.15
2018-07-06T11:05:34.119Z,42.64
2018-07-06T11:06:33.851Z,42.93
2018-07-06T11:07:33.656Z,41.93
2018-07-06T11:08:34.029Z,42.22
2018-07-06T11:09:55.178Z,43.40
2018-07-06T11:10:55.794Z,43.32
2018-07-06T11:11:55.780Z,42.36
2018-07-06T11:12:55.567Z,41.78
2018-07-06T11:13:55.492Z,41.41
2018-07-06T11:14:56.132Z,41.50
2018-07-06T11:15:57.375Z,40.95
2018-07-06T11:16:54.979Z,39.56
2018-07-06T11:17:55.975Z,39.45
2018-07-06T11:18:56.500Z,39.96
2018-07-06T11:19:55.164Z,40.11
2018-07-06T11:20:55.734Z,40.88
2018-07-06T11:21:56.531Z,41.86
2018-07-06T11:23:16.875Z,41.07
2018-07-06T11:24:19.278Z,41.36
2018-07-06T11:25:17.641Z,41.00
2018-07-06T11:26:17.338Z,40.63
2018-07-06T11:27:17.239Z,40.25
2018-07-06T11:28:17.038Z,40.03
2018-07-06T11:29:17.576Z,39.84
2018-07-06T11:30:17.476Z,39.94
2018-07-06T11:31:17.044Z,39.96
2018-07-06T11:32:16.971Z,39.76
2018-07-06T11:33:18.034Z,39.66
2018-07-06T11:34:17.606Z,38.78
2018-07-06T11:35:17.169Z,38.20
2018-07-06T11:37:01.829Z,37.25
2018-07-06T11:38:02.718Z,36.45
2018-07-06T11:39:01.816Z,36.94
2018-07-06T11:40:00.539Z,37.13
2018-07-06T11:41:01.212Z,36.63
2018-07-06T11:42:00.681Z,36.45
2018-07-06T11:43:01.494Z,36.55
2018-07-06T11:45:09.088Z,35.29
2018-07-06T11:46:08.908Z,34.31
2018-07-06T11:47:09.862Z,34.10
2018-07-06T11:48:09.376Z,34.38
2018-07-06T11:49:09.006Z,35.14
2018-07-06T11:50:32.230Z,35.93
2018-07-06T11:51:56.048Z,35.55
2018-07-06T11:52:55.642Z,34.69
2018-07-06T11:53:54.753Z,34.86
2018-07-06T11:54:55.884Z,35.04
2018-07-06T11:56:38.858Z,34.72
2018-07-06T11:57:40.341Z,35.48
2018-07-06T11:58:39.118Z,35.89
2018-07-06T11:59:38.878Z,35.91
2018-07-06T12:00:39.520Z,35.71
2018-07-06T12:01:39.104Z,35.04
2018-07-06T12:02:42.363Z,35.32
2018-07-06T12:03:38.896Z,36.59
2018-07-06T12:04:39.524Z,37.10
2018-07-06T12:05:39.789Z,37.49
2018-07-06T12:07:01.551Z,36.45
2018-07-06T12:08:01.151Z,36.16
2018-07-06T12:09:01.732Z,36.49
2018-07-06T12:10:01.400Z,36.01
2018-07-06T12:11:01.461Z,35.33
2018-07-06T12:12:01.169Z,35.00
2018-07-06T12:13:02.100Z,35.17
2018-07-06T12:14:01.924Z,35.65
2018-07-06T12:15:01.381Z,35.94
2018-07-06T12:16:02.031Z,35.45
2018-07-06T12:17:01.751Z,35.06
2018-07-06T12:18:01.777Z,35.16
2018-07-06T12:19:02.431Z,35.29
2018-07-06T12:20:01.263Z,34.11
2018-07-06T12:21:01.887Z,33.02
2018-07-06T12:22:02.051Z,33.51
2018-07-06T12:23:01.909Z,34.08
2018-07-06T12:24:01.636Z,34.86
2018-07-06T12:25:01.673Z,34.86
2018-07-06T12:26:01.681Z,34.96
2018-07-06T12:27:01.461Z,35.35
2018-07-06T12:28:01.257Z,34.70
2018-07-06T12:29:02.651Z,35.00
2018-07-06T12:30:01.409Z,34.74
2018-07-06T12:31:02.177Z,33.56
2018-07-06T12:32:01.954Z,33.56
2018-07-06T12:33:01.737Z,32.89
2018-07-06T12:34:01.450Z,33.02
2018-07-06T12:35:01.761Z,32.05
2018-07-06T12:36:02.876Z,31.26
2018-07-06T12:37:03.164Z,31.46
2018-07-06T12:38:01.933Z,30.58
2018-07-06T12:39:02.903Z,31.46
2018-07-06T12:40:02.816Z,30.79
2018-07-06T12:41:01.846Z,30.69
2018-07-06T12:42:01.776Z,30.85
2018-07-06T12:43:09.566Z,31.94
2018-07-06T12:44:06.382Z,32.14
2018-07-06T12:45:04.862Z,31.36
2018-07-06T12:46:02.003Z,30.55
2018-07-06T12:47:01.383Z,31.32
2018-07-06T12:48:01.141Z,31.02
2018-07-06T12:49:02.997Z,30.65
2018-07-06T12:50:01.631Z,30.85
2018-07-06T12:51:01.742Z,30.56
2018-07-06T12:52:02.155Z,31.50
2018-07-06T12:53:02.129Z,32.01
2018-07-06T12:54:02.135Z,32.20
2018-07-06T12:55:00.982Z,32.57
2018-07-06T12:56:02.167Z,32.10
2018-07-06T12:57:02.497Z,32.40
2018-07-06T12:58:01.636Z,32.57
2018-07-06T12:59:01.517Z,32.69
2018-07-06T13:00:01.419Z,31.92
2018-07-06T13:01:02.149Z,30.35
2018-07-06T13:02:02.614Z,30.63
2018-07-06T13:03:01.242Z,30.93
2018-07-06T13:04:01.357Z,31.71
2018-07-06T13:05:04.715Z,31.02
2018-07-06T13:06:01.519Z,31.33
2018-07-06T13:07:01.689Z,31.63
2018-07-06T13:08:01.688Z,31.50
2018-07-06T13:09:02.933Z,32.18
2018-07-06T13:10:01.958Z,32.48
2018-07-06T13:11:24.319Z,31.71
2018-07-06T13:12:24.018Z,31.50
2018-07-06T13:13:24.955Z,32.76
2018-07-06T13:14:23.848Z,32.76
2018-07-06T13:15:23.728Z,32.78
2018-07-06T13:16:28.407Z,32.68
2018-07-06T13:17:24.145Z,33.08
2018-07-06T13:18:45.871Z,33.25
2018-07-06T13:19:45.861Z,33.26
2018-07-06T13:20:46.426Z,32.68
2018-07-06T13:21:46.277Z,32.61
2018-07-06T13:23:29.727Z,32.40
2018-07-06T13:24:30.055Z,32.01
2018-07-06T13:25:29.900Z,31.70
2018-07-06T13:26:29.912Z,32.76
2018-07-06T13:27:30.300Z,31.68
2018-07-06T13:28:30.183Z,32.09
2018-07-06T13:29:30.021Z,32.69
2018-07-06T13:30:29.900Z,31.70
2018-07-06T13:31:53.254Z,31.45
2018-07-06T13:32:53.293Z,31.65
2018-07-06T13:33:53.279Z,33.41
2018-07-06T13:35:15.084Z,32.86